Time;durP1;ratioP1;P1;durP2;ratioP2;P2;SDS_P1;SDS_P2;PMS_P1;PMS_P2;Temp;Humidity;BMP_temperature;BMP_pressure;BME280_temperature;BME280_humidity;BME280_pressure;Samples;Min_cycle;Max_cycle;Signal;HPM_P1;HPM_P2
2022/03/03 00:02:19;;;;;;;25.97;16.43;;;2.80;99.90;;;;;;5093267;28;20179;-85
2022/03/03 00:04:45;;;;;;;23.17;15.93;;;2.80;99.90;;;;;;5094456;28;20193;-84
2022/03/03 00:07:11;;;;;;;24.30;15.30;;;2.70;99.90;;;;;;5097589;22;20598;-86
2022/03/03 00:09:38;;;;;;;21.33;15.13;;;2.70;99.90;;;;;;5057174;28;20188;-84
2022/03/03 00:12:04;;;;;;;19.17;13.77;;;2.60;99.90;;;;;;5056957;28;20180;-85
2022/03/03 00:14:30;;;;;;;23.20;15.23;;;2.60;99.90;;;;;;5040797;28;20910;-84
2022/03/03 00:16:55;;;;;;;25.70;14.30;;;2.60;99.90;;;;;;5058266;28;20461;-84
2022/03/03 00:19:21;;;;;;;21.30;14.70;;;2.60;99.90;;;;;;5058767;28;20602;-84
2022/03/03 00:21:47;;;;;;;23.37;13.80;;;2.60;99.90;;;;;;5058569;28;20647;-84
2022/03/03 00:24:12;;;;;;;23.17;15.57;;;2.60;99.90;;;;;;5058738;28;20181;-84
2022/03/03 00:26:38;;;;;;;19.07;13.10;;;2.40;99.90;;;;;;5076815;28;20233;-84
2022/03/03 00:29:03;;;;;;;23.30;13.63;;;2.40;99.90;;;;;;5076950;28;20186;-84
2022/03/03 00:31:29;;;;;;;18.60;13.17;;;2.40;99.90;;;;;;5058866;28;20195;-84
2022/03/03 00:33:54;;;;;;;22.73;14.30;;;2.30;99.90;;;;;;5058473;28;20204;-84
2022/03/03 00:36:20;;;;;;;21.50;12.80;;;2.20;99.90;;;;;;5058748;28;20284;-85
2022/03/03 00:38:47;;;;;;;22.40;13.00;;;2.20;99.90;;;;;;5058682;28;20182;-85
2022/03/03 00:41:12;;;;;;;17.27;12.70;;;2.20;99.90;;;;;;5058642;28;20180;-84
2022/03/03 00:43:38;;;;;;;21.80;11.80;;;2.30;99.90;;;;;;5058202;28;20442;-84
2022/03/03 00:46:04;;;;;;;18.33;12.13;;;2.30;99.90;;;;;;5058435;28;20180;-85
2022/03/03 00:48:29;;;;;;;19.10;11.90;;;2.20;99.90;;;;;;5057999;28;20646;-85
2022/03/03 00:50:55;;;;;;;23.00;12.33;;;2.20;99.90;;;;;;5058393;28;20232;-84
2022/03/03 00:53:20;;;;;;;16.10;11.57;;;2.20;99.90;;;;;;5058040;28;20207;-84
2022/03/03 00:55:46;;;;;;;22.97;11.90;;;2.20;99.90;;;;;;5076398;28;20211;-84
2022/03/03 00:58:12;;;;;;;17.93;11.90;;;2.20;99.90;;;;;;5075639;28;20630;-84
2022/03/03 01:00:37;;;;;;;19.00;12.90;;;2.10;99.90;;;;;;5057956;28;20178;-83
2022/03/03 01:03:03;;;;;;;22.17;13.40;;;2.10;99.90;;;;;;5076115;28;20228;-83
2022/03/03 01:05:28;;;;;;;16.50;11.53;;;2.10;99.90;;;;;;5057539;28;20183;-84
2022/03/03 01:07:54;;;;;;;20.27;13.20;;;2.10;99.90;;;;;;5056938;28;20225;-84
2022/03/03 01:10:19;;;;;;;17.70;12.37;;;2.10;99.90;;;;;;5056572;28;20186;-84
2022/03/03 01:12:45;;;;;;;23.13;12.33;;;2.20;99.90;;;;;;5056954;28;20301;-84
2022/03/03 01:15:11;;;;;;;22.77;13.80;;;2.10;99.90;;;;;;5056883;28;20175;-84
2022/03/03 01:17:37;;;;;;;22.13;11.83;;;2.00;99.90;;;;;;5074625;28;20200;-84
2022/03/03 01:20:05;;;;;;;19.63;11.10;;;1.90;99.90;;;;;;5056995;28;20793;-85
2022/03/03 01:22:31;;;;;;;16.97;12.27;;;1.90;99.90;;;;;;5056225;28;20421;-84
2022/03/03 01:24:56;;;;;;;18.33;12.57;;;1.90;99.90;;;;;;5056748;28;20425;-84
2022/03/03 01:27:22;;;;;;;20.60;12.37;;;1.90;99.90;;;;;;5074353;28;20207;-84
2022/03/03 01:29:47;;;;;;;20.07;13.40;;;1.90;99.90;;;;;;5056604;28;20191;-84
2022/03/03 01:32:13;;;;;;;23.30;14.80;;;1.90;99.90;;;;;;5074858;28;20187;-84
2022/03/03 01:34:39;;;;;;;22.13;14.07;;;1.90;99.90;;;;;;5056367;28;20227;-84
2022/03/03 01:37:05;;;;;;;20.60;12.90;;;1.90;99.90;;;;;;5056080;28;20682;-84
2022/03/03 01:39:31;;;;;;;20.17;11.80;;;1.90;99.90;;;;;;5056065;28;20425;-84
2022/03/03 01:41:58;;;;;;;20.77;13.03;;;1.90;99.90;;;;;;5056083;28;20425;-85
2022/03/03 01:44:24;;;;;;;20.10;12.03;;;1.80;99.90;;;;;;5056036;28;20768;-84
2022/03/03 01:46:55;;;;;;;20.33;14.07;;;1.70;99.90;;;;;;5055757;28;20437;-84
2022/03/03 01:49:22;;;;;;;20.50;12.17;;;1.60;99.90;;;;;;5055947;28;20437;-85
2022/03/03 01:51:48;;;;;;;24.30;13.43;;;1.60;99.90;;;;;;5055821;28;20417;-83
2022/03/03 01:54:14;;;;;;;21.00;13.17;;;1.60;99.90;;;;;;5055699;28;20468;-84
2022/03/03 01:56:41;;;;;;;20.77;12.90;;;1.70;99.90;;;;;;5055410;28;20437;-85
2022/03/03 01:59:07;;;;;;;18.80;12.13;;;1.70;99.90;;;;;;5055813;28;20514;-84
2022/03/03 02:01:34;;;;;;;17.10;11.80;;;1.70;99.90;;;;;;5055405;28;20422;-83
2022/03/03 02:03:59;;;;;;;19.23;13.03;;;1.60;99.90;;;;;;5055211;28;20496;-85
2022/03/03 02:06:25;;;;;;;24.40;13.30;;;1.60;99.90;;;;;;5054494;28;21067;-84
2022/03/03 02:08:52;;;;;;;19.97;13.23;;;1.70;99.90;;;;;;5054889;28;20178;-84
2022/03/03 02:11:20;;;;;;;20.00;12.27;;;1.60;99.90;;;;;;5054925;28;20186;-84
2022/03/03 02:13:46;;;;;;;18.30;10.90;;;1.60;99.90;;;;;;5054627;28;20832;-84
2022/03/03 02:16:12;;;;;;;17.50;12.80;;;1.60;99.90;;;;;;5072480;28;20432;-84
2022/03/03 02:18:44;;;;;;;25.13;14.17;;;1.60;99.90;;;;;;5054745;28;20504;-84
2022/03/03 02:21:15;;;;;;;15.73;11.10;;;1.60;99.90;;;;;;5054674;28;20233;-84
2022/03/03 02:23:42;;;;;;;17.77;11.63;;;1.60;99.90;;;;;;5076810;28;20906;-84
2022/03/03 02:26:11;;;;;;;23.23;12.70;;;1.60;99.90;;;;;;5058717;28;20551;-84
2022/03/03 02:28:39;;;;;;;22.00;14.17;;;1.40;99.90;;;;;;5058462;28;20430;-84
2022/03/03 02:31:04;;;;;;;18.43;11.13;;;1.30;99.90;;;;;;5058530;28;20475;-84
2022/03/03 02:33:30;;;;;;;19.03;12.27;;;1.30;99.90;;;;;;5058849;28;20461;-84
2022/03/03 02:35:56;;;;;;;17.20;10.27;;;1.30;99.90;;;;;;5058383;28;20240;-84
2022/03/03 02:38:21;;;;;;;18.13;11.27;;;1.30;99.90;;;;;;5058604;28;20202;-84
2022/03/03 02:40:47;;;;;;;19.73;11.43;;;1.30;99.90;;;;;;5058576;28;20175;-84
2022/03/03 02:43:12;;;;;;;18.67;12.70;;;1.30;99.90;;;;;;5058573;28;20179;-85
2022/03/03 02:45:38;;;;;;;16.63;11.47;;;1.30;99.90;;;;;;5058546;28;20185;-84
2022/03/03 02:48:03;;;;;;;16.83;10.70;;;1.30;99.90;;;;;;5058291;28;20682;-84
2022/03/03 02:50:29;;;;;;;20.30;11.57;;;1.30;99.90;;;;;;5058148;28;20223;-84
2022/03/03 02:52:57;;;;;;;18.70;11.80;;;1.30;99.90;;;;;;5058225;28;20624;-84
2022/03/03 02:55:22;;;;;;;14.67;10.30;;;1.30;99.90;;;;;;5058631;28;20683;-86
2022/03/03 02:57:55;;;;;;;17.03;11.53;;;1.20;99.90;;;;;;5057946;28;20437;-84
2022/03/03 03:00:22;;;;;;;15.87;11.10;;;1.20;99.90;;;;;;5076052;28;20209;-84
2022/03/03 03:02:48;;;;;;;18.90;11.40;;;1.20;99.90;;;;;;5058118;28;20560;-84
2022/03/03 03:05:14;;;;;;;16.50;11.30;;;1.20;99.90;;;;;;5057984;28;20417;-84
2022/03/03 03:07:39;;;;;;;15.40;10.90;;;1.20;99.90;;;;;;5057627;28;20558;-84
2022/03/03 03:10:06;;;;;;;14.73;11.17;;;1.20;99.90;;;;;;5058092;28;20218;-83
2022/03/03 03:12:32;;;;;;;15.77;11.77;;;1.20;99.90;;;;;;5057892;28;20179;-84
2022/03/03 03:14:58;;;;;;;15.20;11.50;;;1.20;99.90;;;;;;5075693;28;20405;-83
2022/03/03 03:17:24;;;;;;;14.53;9.87;;;1.20;99.90;;;;;;5075373;28;20532;-84
2022/03/03 03:19:49;;;;;;;16.57;11.00;;;1.20;99.90;;;;;;5057931;28;20233;-84
2022/03/03 03:22:15;;;;;;;17.43;11.70;;;1.20;99.90;;;;;;5057762;28;20171;-83
2022/03/03 03:24:40;;;;;;;15.27;10.60;;;1.20;99.90;;;;;;5057645;28;20179;-84
2022/03/03 03:27:06;;;;;;;14.60;9.57;;;1.20;99.90;;;;;;5075254;28;20202;-84
2022/03/03 03:29:32;;;;;;;15.50;10.33;;;1.20;99.90;;;;;;5057565;28;20179;-84
2022/03/03 03:31:58;;;;;;;19.00;10.97;;;1.10;99.90;;;;;;5057695;28;20189;-85
2022/03/03 03:34:23;;;;;;;16.60;10.10;;;1.10;99.90;;;;;;5074861;28;20205;-84
2022/03/03 03:36:49;;;;;;;18.90;11.40;;;1.10;99.90;;;;;;5057349;28;20195;-83
2022/03/03 03:39:15;;;;;;;12.57;10.00;;;1.10;99.90;;;;;;5057895;28;20179;-84
2022/03/03 03:41:43;;;;;;;15.73;10.33;;;1.10;99.90;;;;;;5057430;28;20183;-84
2022/03/03 03:44:09;;;;;;;14.30;8.90;;;1.10;99.90;;;;;;5057337;28;20187;-83
2022/03/03 03:46:35;;;;;;;14.23;9.30;;;1.10;99.90;;;;;;5056984;28;20444;-84
2022/03/03 03:49:01;;;;;;;14.00;9.50;;;1.00;99.90;;;;;;5057336;28;20957;-84
2022/03/03 03:51:26;;;;;;;12.33;9.50;;;1.00;99.90;;;;;;5075386;28;20760;-83
2022/03/03 03:53:52;;;;;;;15.10;10.10;;;1.10;99.90;;;;;;5057476;28;20214;-84
2022/03/03 03:56:17;;;;;;;14.83;9.03;;;1.00;99.90;;;;;;5074873;28;20705;-84
2022/03/03 03:58:43;;;;;;;13.20;9.97;;;1.00;99.90;;;;;;5057226;28;20206;-83
2022/03/03 04:01:09;;;;;;;14.53;9.73;;;1.00;99.90;;;;;;5057279;28;20273;-83
2022/03/03 04:03:34;;;;;;;14.37;8.77;;;1.00;99.90;;;;;;5057288;28;20270;-84
2022/03/03 04:06:00;;;;;;;15.20;10.37;;;1.00;99.90;;;;;;5057037;28;20183;-84
2022/03/03 04:08:25;;;;;;;14.30;9.53;;;0.90;99.90;;;;;;5074856;28;20186;-83
2022/03/03 04:10:51;;;;;;;11.93;9.40;;;0.90;99.90;;;;;;5057381;28;20615;-84
2022/03/03 04:13:17;;;;;;;16.27;9.30;;;0.90;99.90;;;;;;5056815;28;20590;-83
2022/03/03 04:15:42;;;;;;;15.47;9.80;;;0.90;99.90;;;;;;5056837;28;20179;-84
2022/03/03 04:18:08;;;;;;;13.77;9.37;;;0.90;99.90;;;;;;5057065;28;20199;-84
2022/03/03 04:20:34;;;;;;;17.00;8.47;;;0.90;99.90;;;;;;5056632;28;20205;-83
2022/03/03 04:22:59;;;;;;;17.50;9.77;;;0.90;99.90;;;;;;5056723;28;20794;-84
2022/03/03 04:25:25;;;;;;;15.00;9.53;;;0.90;99.90;;;;;;5056673;28;20211;-85
2022/03/03 04:27:51;;;;;;;18.13;10.50;;;1.00;99.90;;;;;;5055928;28;20218;-84
2022/03/03 04:30:16;;;;;;;18.07;9.67;;;0.90;99.90;;;;;;5059273;28;20208;-85
2022/03/03 04:32:42;;;;;;;18.27;10.60;;;0.90;99.90;;;;;;5064151;28;20211;-84
2022/03/03 04:35:08;;;;;;;19.07;8.93;;;0.90;99.90;;;;;;5063893;28;20211;-85
2022/03/03 04:37:35;;;;;;;17.10;10.17;;;0.90;99.90;;;;;;5064248;28;20203;-85
2022/03/03 04:40:02;;;;;;;11.70;8.80;;;0.90;99.90;;;;;;5064275;28;20435;-85
2022/03/03 04:42:27;;;;;;;14.70;8.73;;;0.80;99.90;;;;;;5063709;28;20459;-85
2022/03/03 04:44:53;;;;;;;16.10;10.47;;;0.80;99.90;;;;;;5062109;28;20435;-84
2022/03/03 04:47:19;;;;;;;15.43;9.73;;;0.80;99.90;;;;;;5079999;28;20225;-84
2022/03/03 04:49:45;;;;;;;18.10;9.57;;;0.70;99.90;;;;;;5063262;28;20184;-86
2022/03/03 04:52:10;;;;;;;14.33;9.00;;;0.70;99.90;;;;;;5063075;28;20172;-84
2022/03/03 04:54:36;;;;;;;14.27;9.20;;;0.70;99.90;;;;;;5080813;28;20458;-85
2022/03/03 04:57:02;;;;;;;15.50;10.00;;;0.70;99.90;;;;;;5063190;28;20269;-85
2022/03/03 04:59:28;;;;;;;16.83;9.33;;;0.60;99.90;;;;;;5060335;28;20173;-83
2022/03/03 05:01:53;;;;;;;14.00;9.00;;;0.60;99.90;;;;;;5074095;28;20537;-83
2022/03/03 05:04:19;;;;;;;14.60;9.90;;;0.70;99.90;;;;;;5055878;28;20189;-83
2022/03/03 05:06:45;;;;;;;12.13;8.60;;;0.60;99.90;;;;;;5055469;28;20354;-84
2022/03/03 05:09:11;;;;;;;17.43;10.53;;;0.60;99.90;;;;;;5055747;28;20193;-84
2022/03/03 05:11:37;;;;;;;16.07;9.73;;;0.60;99.90;;;;;;5055538;28;20413;-85
2022/03/03 05:14:02;;;;;;;15.93;9.47;;;0.60;99.90;;;;;;5055463;28;20212;-86
2022/03/03 05:16:28;;;;;;;15.50;9.70;;;0.50;99.90;;;;;;5055074;28;20197;-84
2022/03/03 05:18:54;;;;;;;15.33;9.63;;;0.60;99.90;;;;;;5055441;28;20174;-84
2022/03/03 05:21:20;;;;;;;17.57;9.10;;;0.40;99.90;;;;;;5055336;28;20419;-84
2022/03/03 05:23:46;;;;;;;17.10;9.83;;;0.30;99.90;;;;;;5056466;28;20179;-83
2022/03/03 05:26:11;;;;;;;16.07;9.70;;;0.30;99.90;;;;;;5060301;28;20240;-84
2022/03/03 05:28:38;;;;;;;15.53;10.27;;;0.20;99.90;;;;;;5060438;28;20427;-85
2022/03/03 05:31:03;;;;;;;15.60;9.07;;;0.20;99.90;;;;;;5044253;28;20204;-84
2022/03/03 05:33:30;;;;;;;14.37;9.80;;;0.30;99.90;;;;;;5078339;28;20460;-84
2022/03/03 05:36:06;;;;;;;14.90;9.63;;;0.40;99.90;;;;;;5060056;28;20690;-83
2022/03/03 05:38:33;;;;;;;13.90;10.03;;;0.30;99.90;;;;;;5059844;28;20436;-85
2022/03/03 05:40:59;;;;;;;14.87;10.37;;;0.30;99.90;;;;;;5059604;28;20452;-84
2022/03/03 05:43:25;;;;;;;15.90;9.87;;;0.20;99.90;;;;;;5059684;28;20426;-84
2022/03/03 05:45:53;;;;;;;17.10;10.80;;;0.30;99.90;;;;;;5059205;28;20665;-83
2022/03/03 05:48:19;;;;;;;15.17;10.20;;;0.30;99.90;;;;;;5059146;28;20461;-84
2022/03/03 05:50:46;;;;;;;15.73;9.67;;;0.30;99.90;;;;;;5059284;28;20439;-84
2022/03/03 05:53:12;;;;;;;19.00;9.30;;;0.30;99.90;;;;;;5058447;28;20884;-84
2022/03/03 05:55:43;;;;;;;15.60;8.87;;;0.20;99.90;;;;;;5058954;28;20410;-83
2022/03/03 05:58:17;;;;;;;18.07;9.30;;;0.20;99.90;;;;;;5058193;28;20968;-84
2022/03/03 06:00:47;;;;;;;14.37;9.03;;;0.20;99.90;;;;;;5058761;28;20404;-84
2022/03/03 06:03:14;;;;;;;13.30;10.07;;;0.30;99.90;;;;;;5077423;28;20414;-84
2022/03/03 06:05:44;;;;;;;15.70;10.30;;;0.30;99.90;;;;;;5076116;28;20854;-84
2022/03/03 06:08:15;;;;;;;17.20;10.13;;;0.40;99.90;;;;;;5092050;22;20518;-85
2022/03/03 06:10:46;;;;;;;16.13;10.00;;;0.40;99.90;;;;;;5073076;28;20413;-83
2022/03/03 06:13:23;;;;;;;14.00;8.43;;;0.50;99.90;;;;;;5074626;28;20449;-84
2022/03/03 06:15:50;;;;;;;13.57;9.80;;;0.50;99.90;;;;;;5072353;28;20432;-85
2022/03/03 06:18:18;;;;;;;15.40;9.57;;;0.40;99.90;;;;;;5072697;28;20881;-85
2022/03/03 06:20:45;;;;;;;14.23;9.77;;;0.30;99.90;;;;;;5072817;28;20422;-85
2022/03/03 06:23:13;;;;;;;13.60;8.87;;;0.20;99.90;;;;;;5074646;28;20776;-86
2022/03/03 06:25:38;;;;;;;18.03;10.40;;;0.10;99.90;;;;;;5072350;28;20428;-84
2022/03/03 06:28:04;;;;;;;15.77;10.77;;;0.10;99.90;;;;;;5072297;28;21025;-85
2022/03/03 06:30:31;;;;;;;18.13;11.60;;;0.10;99.90;;;;;;5072973;28;20228;-84
2022/03/03 06:32:57;;;;;;;24.70;10.77;;;0.20;99.90;;;;;;5074861;28;20286;-84
2022/03/03 06:35:23;;;;;;;17.80;9.70;;;0.20;99.90;;;;;;5073279;28;20459;-84
2022/03/03 06:37:48;;;;;;;14.60;9.30;;;0.30;99.90;;;;;;5072639;28;20206;-86
2022/03/03 06:40:14;;;;;;;14.93;9.13;;;0.30;99.90;;;;;;5073334;28;20250;-85
2022/03/03 06:42:39;;;;;;;13.07;8.80;;;0.30;99.90;;;;;;5073339;28;20189;-84
2022/03/03 06:45:05;;;;;;;18.40;9.70;;;0.40;99.90;;;;;;5072929;28;20198;-86
2022/03/03 06:47:31;;;;;;;17.50;10.17;;;0.40;99.90;;;;;;5072812;28;20210;-85
2022/03/03 06:49:57;;;;;;;16.87;9.73;;;0.40;99.90;;;;;;5073614;28;20421;-85
2022/03/03 06:52:28;;;;;;;17.43;10.10;;;0.50;99.90;;;;;;5074369;28;20168;-86
2022/03/03 06:54:54;;;;;;;14.40;9.30;;;0.50;99.90;;;;;;5072970;28;20177;-85
2022/03/03 06:57:21;;;;;;;13.47;9.73;;;0.60;99.90;;;;;;5071627;28;20583;-84
2022/03/03 06:59:47;;;;;;;16.00;10.13;;;0.60;99.90;;;;;;5072844;28;20274;-86
2022/03/03 07:02:14;;;;;;;15.87;10.03;;;0.60;99.90;;;;;;5075406;28;20427;-85
2022/03/03 07:04:40;;;;;;;14.80;10.30;;;0.50;99.90;;;;;;5073971;28;20422;-86
2022/03/03 07:07:06;;;;;;;15.70;10.53;;;0.50;99.90;;;;;;5073660;28;20501;-84
2022/03/03 07:09:33;;;;;;;14.20;9.10;;;0.50;99.90;;;;;;5074946;28;20776;-84
2022/03/03 07:12:00;;;;;;;18.57;10.50;;;0.60;99.90;;;;;;5077073;28;20905;-85
2022/03/03 07:14:26;;;;;;;15.40;11.10;;;0.60;99.90;;;;;;5078490;28;20551;-87
2022/03/03 07:17:04;;;;;;;12.27;9.87;;;0.80;99.90;;;;;;5076045;28;20815;-83
2022/03/03 07:19:39;;;;;;;17.90;12.60;;;0.80;99.90;;;;;;5075094;28;20939;-84
2022/03/03 07:22:22;;;;;;;18.63;10.83;;;0.90;99.90;;;;;;5074535;28;20534;-84
2022/03/03 07:25:00;;;;;;;19.67;10.63;;;1.00;99.90;;;;;;5074127;28;20425;-84
2022/03/03 07:27:26;;;;;;;17.30;10.20;;;1.10;99.90;;;;;;5074878;28;20475;-84
2022/03/03 07:29:59;;;;;;;19.23;11.83;;;1.20;99.90;;;;;;5073506;28;20495;-85
2022/03/03 07:32:35;;;;;;;16.50;10.93;;;1.20;99.90;;;;;;5073773;28;20514;-85
2022/03/03 07:35:22;;;;;;;16.93;12.10;;;1.30;99.90;;;;;;5073612;28;20423;-84
2022/03/03 07:38:00;;;;;;;13.33;10.30;;;1.40;99.90;;;;;;5074436;28;20443;-84
2022/03/03 07:40:30;;;;;;;15.40;10.53;;;1.50;99.90;;;;;;5073846;28;20781;-85
2022/03/03 07:42:57;;;;;;;16.60;10.50;;;1.50;99.90;;;;;;5074001;28;20425;-85
2022/03/03 07:45:23;;;;;;;14.97;10.60;;;1.60;99.90;;;;;;5073834;28;20485;-85
2022/03/03 07:47:51;;;;;;;24.47;10.90;;;1.80;99.90;;;;;;5073377;28;20481;-84
2022/03/03 07:50:16;;;;;;;17.67;11.40;;;1.80;99.90;;;;;;5075322;28;20413;-85
2022/03/03 07:52:45;;;;;;;17.07;10.90;;;1.90;99.90;;;;;;5073260;28;20966;-84
2022/03/03 07:55:11;;;;;;;16.20;10.77;;;2.00;99.90;;;;;;5072999;28;20575;-83
2022/03/03 07:57:44;;;;;;;20.30;11.80;;;2.00;99.90;;;;;;5074174;28;20523;-85
2022/03/03 08:00:13;;;;;;;15.13;11.17;;;2.10;99.90;;;;;;5072914;28;20642;-85
2022/03/03 08:02:42;;;;;;;16.60;10.90;;;2.20;99.90;;;;;;5074254;28;20414;-85
2022/03/03 08:05:08;;;;;;;16.60;10.20;;;2.40;99.90;;;;;;5072750;28;20428;-85
2022/03/03 08:07:46;;;;;;;14.63;10.20;;;2.60;99.90;;;;;;5074466;28;20450;-85
2022/03/03 08:10:13;;;;;;;17.87;10.60;;;2.70;99.90;;;;;;5074691;28;20439;-86
2022/03/03 08:12:40;;;;;;;14.37;9.93;;;2.90;99.90;;;;;;5074445;28;20522;-85
2022/03/03 08:15:08;;;;;;;15.33;10.00;;;3.00;99.90;;;;;;5075118;28;21016;-84
2022/03/03 08:17:34;;;;;;;15.33;9.43;;;3.20;99.90;;;;;;5073308;28;20475;-83
2022/03/03 08:20:02;;;;;;;14.80;10.73;;;3.40;99.90;;;;;;5073342;28;20506;-84
2022/03/03 08:22:28;;;;;;;13.07;9.90;;;3.50;99.90;;;;;;5073380;28;20432;-84
2022/03/03 08:24:55;;;;;;;17.30;10.87;;;3.70;99.90;;;;;;5073598;28;20451;-85
2022/03/03 08:27:22;;;;;;;13.80;9.30;;;3.90;99.90;;;;;;5075580;28;20198;-84
2022/03/03 08:29:48;;;;;;;15.03;10.07;;;4.00;99.90;;;;;;5073716;28;20424;-84
2022/03/03 08:32:16;;;;;;;16.03;8.33;;;4.20;99.90;;;;;;5073207;28;21006;-86
2022/03/03 08:34:50;;;;;;;15.97;9.67;;;4.40;99.90;;;;;;5071032;28;20674;-82
2022/03/03 08:37:37;;;;;;;15.60;10.70;;;4.50;99.90;;;;;;5051477;28;20459;-82
2022/03/03 08:40:06;;;;;;;14.90;9.70;;;4.70;99.90;;;;;;5053338;28;20421;-82
2022/03/03 08:42:36;;;;;;;13.97;9.90;;;4.80;99.90;;;;;;5054068;28;20419;-82
2022/03/03 08:45:04;;;;;;;15.83;10.27;;;5.00;99.90;;;;;;5054099;28;20920;-82
2022/03/03 08:47:31;;;;;;;13.57;8.93;;;5.10;99.90;;;;;;5053434;28;20452;-81
2022/03/03 08:50:00;;;;;;;17.20;10.30;;;5.30;99.90;;;;;;5055160;28;20496;-84
2022/03/03 08:52:27;;;;;;;18.30;9.47;;;5.40;99.90;;;;;;5052766;28;20411;-83
2022/03/03 08:54:53;;;;;;;14.70;9.40;;;5.50;99.90;;;;;;5061564;28;20427;-85
2022/03/03 08:57:19;;;;;;;16.90;10.27;;;5.70;99.90;;;;;;5042674;28;20435;-85
2022/03/03 08:59:45;;;;;;;14.73;9.30;;;5.80;99.90;;;;;;5033702;28;20952;-84
2022/03/03 09:02:14;;;;;;;16.63;9.60;;;5.90;99.90;;;;;;5048346;28;20185;-84
2022/03/03 09:04:39;;;;;;;13.70;8.60;;;6.10;99.90;;;;;;5032254;28;20208;-84
2022/03/03 09:07:05;;;;;;;10.90;8.90;;;6.20;99.90;;;;;;5031287;28;20496;-84
2022/03/03 09:09:31;;;;;;;13.97;9.37;;;6.30;99.90;;;;;;5048602;28;20165;-84
2022/03/03 09:11:56;;;;;;;15.97;9.73;;;6.40;99.90;;;;;;5032067;28;20185;-84
2022/03/03 09:14:22;;;;;;;12.70;9.73;;;6.50;99.90;;;;;;5048564;28;20210;-84
2022/03/03 09:16:47;;;;;;;14.17;9.47;;;6.60;99.90;;;;;;5032788;28;20197;-82
2022/03/03 09:19:13;;;;;;;12.60;8.73;;;6.70;99.90;;;;;;5033252;28;20175;-82
2022/03/03 09:21:40;;;;;;;11.30;8.60;;;6.80;99.90;;;;;;5033195;28;20257;-82
2022/03/03 09:24:06;;;;;;;13.80;9.40;;;6.90;99.90;;;;;;5032934;28;20551;-83
2022/03/03 09:26:32;;;;;;;12.17;8.70;;;7.00;99.90;;;;;;5032381;28;20786;-81
2022/03/03 09:28:57;;;;;;;11.57;8.37;;;7.10;99.90;;;;;;5034243;28;20418;-81
2022/03/03 09:31:23;;;;;;;12.83;8.37;;;7.20;99.90;;;;;;5031077;28;20295;-83
2022/03/03 09:33:50;;;;;;;12.13;9.93;;;7.20;99.90;;;;;;5031905;28;20211;-82
2022/03/03 09:36:18;;;;;;;15.30;9.67;;;7.30;99.90;;;;;;5032967;28;20176;-85
2022/03/03 09:38:43;;;;;;;14.17;10.80;;;7.50;99.90;;;;;;5048142;28;20449;-86
2022/03/03 09:41:09;;;;;;;14.60;9.23;;;7.60;99.90;;;;;;5031800;28;20421;-81
2022/03/03 09:43:35;;;;;;;12.93;8.93;;;7.70;99.90;;;;;;5031571;28;20438;-83
2022/03/03 09:46:01;;;;;;;16.10;9.73;;;7.90;99.90;;;;;;5031871;28;20185;-84
2022/03/03 09:48:26;;;;;;;19.60;10.30;;;7.90;99.90;;;;;;5031357;28;20207;-83
2022/03/03 09:50:52;;;;;;;12.87;9.80;;;8.00;99.90;;;;;;5030921;28;20184;-83
2022/03/03 09:53:18;;;;;;;14.10;9.60;;;8.20;99.90;;;;;;5031754;28;20258;-83
2022/03/03 09:55:46;;;;;;;14.87;9.50;;;8.30;99.90;;;;;;5033090;28;20501;-83
2022/03/03 09:58:12;;;;;;;16.83;10.40;;;8.30;99.90;;;;;;5031376;28;20980;-83
2022/03/03 10:00:40;;;;;;;14.73;9.87;;;8.40;99.90;;;;;;5031341;28;20415;-85
2022/03/03 10:03:09;;;;;;;19.13;9.57;;;8.40;99.90;;;;;;5032822;28;20784;-84
2022/03/03 10:05:37;;;;;;;15.20;10.47;;;8.50;99.90;;;;;;5031253;28;20419;-83
2022/03/03 10:08:05;;;;;;;13.63;9.07;;;8.60;99.90;;;;;;5033073;28;20505;-84
2022/03/03 10:10:32;;;;;;;14.90;10.23;;;8.70;99.90;;;;;;5030676;28;20430;-84
2022/03/03 10:12:58;;;;;;;13.53;9.97;;;8.80;99.90;;;;;;5032640;28;20469;-83
2022/03/03 10:15:28;;;;;;;13.57;10.03;;;8.90;99.90;;;;;;5032446;28;20407;-83
2022/03/03 10:18:10;;;;;;;13.30;9.67;;;9.10;99.50;;;;;;5032068;28;20434;-84
2022/03/03 10:20:58;;;;;;;15.57;10.10;;;9.20;99.60;;;;;;5030578;28;20406;-83
2022/03/03 10:23:31;;;;;;;14.50;10.40;;;9.30;98.90;;;;;;5032674;28;20492;-84
2022/03/03 10:25:59;;;;;;;13.00;9.67;;;9.50;97.90;;;;;;5030515;28;20451;-82
2022/03/03 10:28:30;;;;;;;14.67;10.13;;;9.60;98.30;;;;;;5032403;28;20441;-82
2022/03/03 10:31:04;;;;;;;14.60;10.20;;;10.60;97.40;;;;;;5032722;28;20418;-82
2022/03/03 10:33:41;;;;;;;14.40;9.90;;;14.40;81.20;;;;;;5031020;28;20893;-82
2022/03/03 10:36:14;;;;;;;13.50;10.13;;;15.50;74.50;;;;;;5035228;28;20409;-85
2022/03/03 10:38:59;;;;;;;14.13;11.30;;;19.30;54.20;;;;;;5051357;28;20528;-85
2022/03/03 10:41:27;;;;;;;12.40;10.37;;;19.80;50.90;;;;;;5051908;28;20409;-82
2022/03/03 10:43:53;;;;;;;14.23;10.60;;;21.60;43.60;;;;;;5052964;28;20450;-82
2022/03/03 10:46:18;;;;;;;12.60;10.60;;;22.70;40.80;;;;;;5053890;28;20461;-81
2022/03/03 10:48:44;;;;;;;12.77;9.63;;;24.30;37.30;;;;;;5055275;28;20278;-81
2022/03/03 10:51:14;;;;;;;13.47;11.60;;;26.30;36.00;;;;;;5054096;28;20249;-81
2022/03/03 10:53:40;;;;;;;13.93;11.50;;;28.00;32.00;;;;;;5055030;28;20294;-82
2022/03/03 10:56:12;;;;;;;13.47;11.37;;;29.00;29.30;;;;;;5055246;28;20497;-81
2022/03/03 10:58:54;;;;;;;12.90;11.37;;;30.00;29.30;;;;;;5053885;28;20582;-81
2022/03/03 11:01:32;;;;;;;12.57;11.30;;;31.60;27.50;;;;;;5055337;28;20394;-81
2022/03/03 11:03:59;;;;;;;12.83;11.03;;;32.40;25.70;;;;;;5056990;28;20497;-83
2022/03/03 11:06:28;;;;;;;14.37;12.23;;;32.40;24.40;;;;;;5054087;28;21004;-82
2022/03/03 11:08:55;;;;;;;15.10;13.60;;;32.50;24.10;;;;;;5054739;28;21156;-82
2022/03/03 11:11:23;;;;;;;13.40;12.10;;;32.60;24.30;;;;;;5054513;28;20418;-82
2022/03/03 11:13:50;;;;;;;12.93;11.63;;;32.70;23.00;;;;;;5055848;28;20936;-83
2022/03/03 11:16:18;;;;;;;12.87;11.57;;;32.10;22.80;;;;;;5053999;28;20471;-82
2022/03/03 11:18:44;;;;;;;12.90;11.57;;;31.40;23.00;;;;;;5054192;28;20442;-81
2022/03/03 11:21:10;;;;;;;15.93;12.10;;;32.20;23.90;;;;;;5055424;28;20460;-82
2022/03/03 11:23:58;;;;;;;13.87;11.10;;;31.30;22.90;;;;;;5055308;28;20489;-82
2022/03/03 11:26:40;;;;;;;14.73;11.30;;;31.10;23.40;;;;;;5053529;28;20176;-82
2022/03/03 11:29:11;;;;;;;13.03;11.63;;;31.80;22.20;;;;;;5054392;28;20414;-82
2022/03/03 11:31:37;;;;;;;13.87;11.20;;;32.10;22.50;;;;;;5053882;28;20479;-82
2022/03/03 11:34:21;;;;;;;13.73;11.47;;;32.30;22.70;;;;;;5055204;28;20467;-82
2022/03/03 11:36:50;;;;;;;11.93;10.73;;;30.80;22.00;;;;;;5054799;28;20499;-81
2022/03/03 11:39:36;;;;;;;14.10;11.93;;;31.10;22.10;;;;;;5070250;28;20426;-84
2022/03/03 11:42:20;;;;;;;13.73;12.27;;;30.80;22.50;;;;;;5054272;28;20406;-83
2022/03/03 11:44:46;;;;;;;13.50;12.10;;;30.30;23.10;;;;;;5055273;28;20472;-81
2022/03/03 11:47:26;;;;;;;12.93;11.17;;;29.40;23.10;;;;;;5054354;28;20434;-82
2022/03/03 11:50:02;;;;;;;14.17;12.67;;;28.40;23.50;;;;;;5054886;28;20525;-82
2022/03/03 11:52:28;;;;;;;12.80;11.30;;;28.50;23.40;;;;;;5053521;28;20425;-82
2022/03/03 11:55:00;;;;;;;13.90;11.20;;;28.50;23.40;;;;;;5054236;28;20414;-82
2022/03/03 11:57:32;;;;;;;13.17;11.80;;;28.80;24.00;;;;;;5054270;28;20196;-82
2022/03/03 12:00:06;;;;;;;13.93;11.20;;;28.60;23.20;;;;;;5053678;28;20453;-81
2022/03/03 12:02:34;;;;;;;12.40;10.97;;;28.20;23.10;;;;;;5054971;28;20414;-82
2022/03/03 12:05:29;;;;;;;14.20;11.80;;;27.90;23.00;;;;;;5055421;28;20422;-83
2022/03/03 12:08:27;;;;;;;11.70;10.17;;;28.20;23.60;;;;;;5054062;28;20991;-83
2022/03/03 12:10:59;;;;;;;11.40;10.20;;;28.70;22.50;;;;;;5072026;22;21039;-85
2022/03/03 12:13:38;;;;;;;12.33;11.03;;;29.00;23.30;;;;;;5051696;28;20979;-84
2022/03/03 12:16:39;;;;;;;13.33;12.00;;;30.10;22.90;;;;;;5045728;28;20423;-86
2022/03/03 12:19:07;;;;;;;13.50;11.83;;;29.70;23.00;;;;;;5011431;28;20518;-85
2022/03/03 12:21:36;;;;;;;12.80;10.90;;;29.60;22.80;;;;;;5007057;28;20436;-84
2022/03/03 12:24:14;;;;;;;12.47;11.27;;;28.90;23.60;;;;;;5013909;28;20824;-84
2022/03/03 12:26:58;;;;;;;12.60;11.30;;;28.50;23.90;;;;;;5028646;28;20499;-85
2022/03/03 12:29:31;;;;;;;11.90;10.63;;;27.50;23.70;;;;;;5013659;28;20393;-84
2022/03/03 12:31:56;;;;;;;12.37;10.93;;;26.60;23.70;;;;;;5028878;28;20558;-84
2022/03/03 12:34:22;;;;;;;14.27;12.30;;;25.40;25.00;;;;;;5013988;28;20986;-84
2022/03/03 12:36:54;;;;;;;15.10;11.67;;;24.00;24.50;;;;;;5028549;28;20264;-85
2022/03/03 12:39:20;;;;;;;13.30;11.07;;;22.80;25.50;;;;;;5013880;28;20407;-85
2022/03/03 12:41:46;;;;;;;11.30;10.03;;;22.90;26.90;;;;;;5028818;28;20440;-85
2022/03/03 12:44:15;;;;;;;12.00;10.30;;;25.20;27.10;;;;;;5028769;28;20550;-85